Time;durP1;ratioP1;P1;durP2;ratioP2;P2;SDS_P1;SDS_P2;PMS_P1;PMS_P2;Temp;Humidity;BMP_temperature;BMP_pressure;BME280_temperature;BME280_humidity;BME280_pressure;Samples;Min_cycle;Max_cycle;Signal;HPM_P1;HPM_P2
2022/05/01 00:00:27;;;;;;;;;;;19.00;60.10;;;;;;5072491;28;1975;-67
2022/05/01 00:02:53;;;;;;;;;;;19.00;60.10;;;;;;5073289;28;1298;-67
2022/05/01 00:05:18;;;;;;;;;;;19.00;60.20;;;;;;5072822;28;1259;-67
2022/05/01 00:07:43;;;;;;;;;;;19.00;60.20;;;;;;5072730;28;1312;-67
2022/05/01 00:10:09;;;;;;;;;;;19.00;60.20;;;;;;5072561;28;1274;-68
2022/05/01 00:12:35;;;;;;;;;;;19.00;60.20;;;;;;5069755;28;1333;-67
2022/05/01 00:15:01;;;;;;;;;;;19.00;60.20;;;;;;5069031;28;1174;-67
2022/05/01 00:17:26;;;;;;;;;;;19.00;60.30;;;;;;5072404;28;1324;-68
2022/05/01 00:19:52;;;;;;;;;;;19.00;60.30;;;;;;5072403;28;1906;-67
2022/05/01 00:22:17;;;;;;;;;;;18.90;60.30;;;;;;5072749;28;1068;-67
2022/05/01 00:24:42;;;;;;;;;;;19.00;60.30;;;;;;5072567;28;1297;-67
2022/05/01 00:27:08;;;;;;;;;;;19.00;60.30;;;;;;5072611;28;1272;-67
2022/05/01 00:29:33;;;;;;;;;;;19.00;60.40;;;;;;5072208;28;1297;-67
2022/05/01 00:31:59;;;;;;;;;;;18.90;60.30;;;;;;5072507;28;1397;-67
2022/05/01 00:37:08;;;;;;;;;;;18.90;60.30;;;;;;5064608;28;1686;-67
2022/05/01 00:39:34;;;;;;;;;;;18.90;60.40;;;;;;5071255;28;1409;-67
2022/05/01 00:41:59;;;;;;;;;;;18.90;60.40;;;;;;5072465;28;1972;-67
2022/05/01 00:44:25;;;;;;;;;;;18.90;60.40;;;;;;5072413;28;1266;-68
2022/05/01 00:46:51;;;;;;;;;;;18.90;60.40;;;;;;5072463;28;1254;-67
2022/05/01 00:49:26;;;;;;;;;;;18.90;60.40;;;;;;5072057;28;1333;-68
2022/05/01 00:52:03;;;;;;;;;;;18.90;60.50;;;;;;5072552;28;1352;-67
2022/05/01 00:54:29;;;;;;;;;;;18.90;60.50;;;;;;5070943;28;1311;-67
2022/05/01 00:56:54;;;;;;;;;;;18.90;60.60;;;;;;5071559;28;1319;-67
2022/05/01 00:59:20;;;;;;;;;;;18.90;60.60;;;;;;5072272;28;1326;-68
2022/05/01 01:01:45;;;;;;;;;;;18.90;60.60;;;;;;5072152;28;1898;-67
2022/05/01 01:04:11;;;;;;;;;;;18.90;60.60;;;;;;5071140;28;1342;-68
2022/05/01 01:06:39;;;;;;;;;;;18.90;60.70;;;;;;5074587;28;1330;-67
2022/05/01 01:09:05;;;;;;;;;;;18.90;60.70;;;;;;5074177;28;1518;-67
2022/05/01 01:11:30;;;;;;;;;;;18.90;60.70;;;;;;5074668;28;1345;-68
2022/05/01 01:13:57;;;;;;;;;;;18.90;60.60;;;;;;5069171;28;1103;-67
2022/05/01 01:16:23;;;;;;;;;;;18.90;60.70;;;;;;5074453;28;1258;-67
2022/05/01 01:18:48;;;;;;;;;;;18.90;60.70;;;;;;5075717;28;1348;-68
2022/05/01 01:21:13;;;;;;;;;;;18.90;60.70;;;;;;5075442;28;1905;-67
2022/05/01 01:23:39;;;;;;;;;;;18.90;60.70;;;;;;5075526;28;1190;-68
2022/05/01 01:26:05;;;;;;;;;;;18.80;60.70;;;;;;5074550;28;1241;-67
2022/05/01 01:28:35;;;;;;;;;;;18.90;60.70;;;;;;5074129;28;1318;-67
2022/05/01 01:33:45;;;;;;;;;;;18.90;60.80;;;;;;5074581;28;1350;-67
2022/05/01 01:36:11;;;;;;;;;;;18.90;60.80;;;;;;5075218;28;1567;-67
2022/05/01 01:38:37;;;;;;;;;;;18.90;60.80;;;;;;5067106;28;1154;-67
2022/05/01 01:41:05;;;;;;;;;;;18.90;60.80;;;;;;5069554;28;2019;-67
2022/05/01 01:43:31;;;;;;;;;;;18.90;60.80;;;;;;5067490;28;1219;-67
2022/05/01 01:45:56;;;;;;;;;;;18.80;60.80;;;;;;5067134;28;1331;-67
2022/05/01 01:48:22;;;;;;;;;;;18.80;60.80;;;;;;5065943;28;2031;-67
2022/05/01 01:51:03;;;;;;;;;;;18.80;60.80;;;;;;5053094;28;2029;-67
2022/05/01 01:53:29;;;;;;;;;;;18.80;60.80;;;;;;5066685;28;1458;-67
2022/05/01 01:55:56;;;;;;;;;;;18.80;60.80;;;;;;5063137;28;1311;-68
2022/05/01 01:58:21;;;;;;;;;;;18.80;60.80;;;;;;5067997;28;1279;-66
2022/05/01 02:00:47;;;;;;;;;;;18.80;60.80;;;;;;5066215;28;1984;-67
2022/05/01 02:03:12;;;;;;;;;;;18.80;60.90;;;;;;5066041;28;1207;-67
2022/05/01 02:05:38;;;;;;;;;;;18.80;60.80;;;;;;5066886;28;1384;-68
2022/05/01 02:08:05;;;;;;;;;;;18.80;60.80;;;;;;5064476;28;1244;-67
2022/05/01 02:10:31;;;;;;;;;;;18.80;60.80;;;;;;5064935;28;1379;-66
2022/05/01 02:12:56;;;;;;;;;;;18.80;60.80;;;;;;5067054;28;2023;-68
2022/05/01 02:15:22;;;;;;;;;;;18.80;60.80;;;;;;5069875;28;1302;-66
2022/05/01 02:17:50;;;;;;;;;;;18.80;60.90;;;;;;5065028;28;1323;-67
2022/05/01 02:20:19;;;;;;;;;;;18.80;60.90;;;;;;5067438;28;1910;-67
2022/05/01 02:22:44;;;;;;;;;;;18.80;60.90;;;;;;5065069;28;1375;-67
2022/05/01 02:25:10;;;;;;;;;;;18.80;60.90;;;;;;5065279;28;1254;-66
2022/05/01 02:27:35;;;;;;;;;;;18.80;60.90;;;;;;5078172;28;1448;-67
2022/05/01 02:30:01;;;;;;;;;;;18.80;60.90;;;;;;5063554;28;1327;-68
2022/05/01 02:32:26;;;;;;;;;;;18.80;60.90;;;;;;5064675;28;1258;-68
2022/05/01 02:34:52;;;;;;;;;;;18.80;60.90;;;;;;5068343;28;2117;-68
2022/05/01 02:37:17;;;;;;;;;;;18.80;60.90;;;;;;5065948;28;1694;-68
2022/05/01 02:39:42;;;;;;;;;;;18.80;61.00;;;;;;5072337;28;1274;-67
2022/05/01 02:42:08;;;;;;;;;;;18.80;61.00;;;;;;5069135;28;1902;-66
2022/05/01 02:44:33;;;;;;;;;;;18.80;61.00;;;;;;5074197;28;1264;-66
2022/05/01 02:46:59;;;;;;;;;;;18.80;60.90;;;;;;5072579;28;1296;-67
2022/05/01 02:49:24;;;;;;;;;;;18.80;61.00;;;;;;5072952;28;1389;-68
2022/05/01 02:51:52;;;;;;;;;;;18.80;61.00;;;;;;5056027;28;1171;-68
2022/05/01 02:54:18;;;;;;;;;;;18.80;61.00;;;;;;5059971;28;1274;-68
2022/05/01 02:56:43;;;;;;;;;;;18.80;61.00;;;;;;5071164;28;1145;-68
2022/05/01 02:59:09;;;;;;;;;;;18.80;61.00;;;;;;5072507;28;1357;-68
2022/05/01 03:01:35;;;;;;;;;;;18.80;61.00;;;;;;5073602;28;1957;-68
2022/05/01 03:04:00;;;;;;;;;;;18.70;60.90;;;;;;5073957;28;1272;-67
2022/05/01 03:06:26;;;;;;;;;;;18.70;60.90;;;;;;5065486;28;1310;-67
2022/05/01 03:08:51;;;;;;;;;;;18.80;61.00;;;;;;5068877;28;1288;-67
2022/05/01 03:11:17;;;;;;;;;;;18.70;61.00;;;;;;5073722;28;1267;-67
2022/05/01 03:13:43;;;;;;;;;;;18.70;61.00;;;;;;5073656;28;1190;-67
2022/05/01 03:16:08;;;;;;;;;;;18.70;61.00;;;;;;5073337;28;1258;-69
2022/05/01 03:24:02;;;;;;;;;;;18.70;61.00;;;;;;5072477;28;1256;-67
2022/05/01 03:26:27;;;;;;;;;;;18.70;61.00;;;;;;5073167;28;1282;-67
2022/05/01 03:28:53;;;;;;;;;;;18.70;61.00;;;;;;5073349;28;1342;-67
2022/05/01 03:31:18;;;;;;;;;;;18.70;61.00;;;;;;5073476;28;1400;-68
2022/05/01 03:33:44;;;;;;;;;;;18.70;61.00;;;;;;5073342;28;1067;-68
2022/05/01 03:36:10;;;;;;;;;;;18.70;61.00;;;;;;5073179;28;1448;-67
2022/05/01 03:38:36;;;;;;;;;;;18.70;61.00;;;;;;5065635;28;1175;-67
2022/05/01 03:41:03;;;;;;;;;;;18.70;61.00;;;;;;5073004;28;1973;-67
2022/05/01 03:43:28;;;;;;;;;;;18.70;61.10;;;;;;5073363;28;1309;-68
2022/05/01 03:45:54;;;;;;;;;;;18.70;61.10;;;;;;5073172;28;1424;-68
2022/05/01 03:48:19;;;;;;;;;;;18.70;61.00;;;;;;5073031;28;1091;-68
2022/05/01 03:50:44;;;;;;;;;;;18.70;61.10;;;;;;5072981;28;1459;-67
2022/05/01 03:53:10;;;;;;;;;;;18.70;61.10;;;;;;5073090;28;1349;-68
2022/05/01 03:55:36;;;;;;;;;;;18.70;61.10;;;;;;5071601;28;1362;-69
2022/05/01 03:58:02;;;;;;;;;;;18.70;61.10;;;;;;5072755;28;1390;-68
2022/05/01 04:00:27;;;;;;;;;;;18.70;61.10;;;;;;5072866;28;1969;-69
2022/05/01 04:02:53;;;;;;;;;;;18.70;61.10;;;;;;5072989;28;1277;-69
2022/05/01 04:05:18;;;;;;;;;;;18.70;61.10;;;;;;5072935;28;1400;-68
2022/05/01 04:07:44;;;;;;;;;;;18.70;61.10;;;;;;5071559;28;1994;-67
2022/05/01 04:10:09;;;;;;;;;;;18.70;61.10;;;;;;5072456;28;1286;-67
2022/05/01 04:12:36;;;;;;;;;;;18.70;61.10;;;;;;5072864;28;1274;-68
2022/05/01 04:15:02;;;;;;;;;;;18.70;61.10;;;;;;5071590;28;1324;-69
2022/05/01 04:17:27;;;;;;;;;;;18.70;61.10;;;;;;5072664;28;1266;-67
2022/05/01 04:19:53;;;;;;;;;;;18.70;61.10;;;;;;5072584;28;1314;-66
2022/05/01 04:22:19;;;;;;;;;;;18.70;61.10;;;;;;5072775;28;1906;-67
2022/05/01 04:24:45;;;;;;;;;;;18.70;61.10;;;;;;5072478;28;1300;-68
2022/05/01 04:27:10;;;;;;;;;;;18.70;61.10;;;;;;5072522;28;1075;-68
2022/05/01 04:29:36;;;;;;;;;;;18.70;61.20;;;;;;5068148;28;2030;-69
2022/05/01 04:32:01;;;;;;;;;;;18.70;61.90;;;;;;5068411;28;2156;-68
2022/05/01 04:34:27;;;;;;;;;;;18.70;61.10;;;;;;5066919;28;1400;-68
2022/05/01 04:36:52;;;;;;;;;;;18.70;61.10;;;;;;5049590;28;1518;-69
2022/05/01 04:39:18;;;;;;;;;;;18.70;61.20;;;;;;5071029;28;1599;-68
2022/05/01 04:41:43;;;;;;;;;;;18.70;61.20;;;;;;5067934;28;1910;-68
2022/05/01 04:44:09;;;;;;;;;;;18.70;61.20;;;;;;5074298;28;1616;-69
2022/05/01 04:46:34;;;;;;;;;;;18.70;61.20;;;;;;5076726;28;1654;-68
2022/05/01 04:48:59;;;;;;;;;;;18.70;61.20;;;;;;5076322;28;1323;-69
2022/05/01 04:51:26;;;;;;;;;;;18.70;61.20;;;;;;5075408;28;1399;-69
2022/05/01 04:53:51;;;;;;;;;;;18.70;61.10;;;;;;5076462;28;1436;-69
2022/05/01 04:59:01;;;;;;;;;;;18.70;61.20;;;;;;5076003;28;1699;-68
2022/05/01 05:01:26;;;;;;;;;;;18.70;61.20;;;;;;5076089;28;1926;-69
2022/05/01 05:03:52;;;;;;;;;;;18.70;61.20;;;;;;5076246;28;1710;-69
2022/05/01 05:06:17;;;;;;;;;;;18.70;61.20;;;;;;5075124;28;1898;-67
2022/05/01 05:11:27;;;;;;;;;;;18.70;61.10;;;;;;5076177;28;1689;-69
2022/05/01 05:13:52;;;;;;;;;;;18.70;61.10;;;;;;5072357;28;2063;-66
2022/05/01 05:16:18;;;;;;;;;;;18.70;60.90;;;;;;5075227;28;2635;-67
2022/05/01 05:18:43;;;;;;;;;;;18.80;60.90;;;;;;5075403;28;1204;-66
2022/05/01 05:21:09;;;;;;;;;;;18.90;60.90;;;;;;5059414;28;1906;-66
2022/05/01 05:23:34;;;;;;;;;;;18.90;60.70;;;;;;5075825;28;1313;-66
2022/05/01 05:26:00;;;;;;;;;;;19.00;60.50;;;;;;5075534;28;1345;-66
2022/05/01 05:28:25;;;;;;;;;;;19.00;60.30;;;;;;5075457;28;1382;-68
2022/05/01 05:30:51;;;;;;;;;;;19.20;60.90;;;;;;5075253;28;1278;-68
2022/05/01 05:33:16;;;;;;;;;;;19.20;60.00;;;;;;5073730;28;1299;-68
2022/05/01 05:35:42;;;;;;;;;;;19.30;59.80;;;;;;5068379;28;1318;-69
2022/05/01 05:38:07;;;;;;;;;;;19.40;59.70;;;;;;5057923;28;1668;-69
2022/05/01 05:40:32;;;;;;;;;;;19.50;59.50;;;;;;5069871;28;1909;-68
2022/05/01 05:42:58;;;;;;;;;;;19.60;59.30;;;;;;5074057;28;1324;-67
2022/05/01 05:45:24;;;;;;;;;;;19.60;59.10;;;;;;5074427;28;1295;-66
2022/05/01 05:47:49;;;;;;;;;;;19.70;58.90;;;;;;5072952;28;1388;-66
2022/05/01 05:50:15;;;;;;;;;;;19.70;58.70;;;;;;5074035;28;1433;-71
2022/05/01 05:52:41;;;;;;;;;;;19.80;58.60;;;;;;5072961;28;1071;-68
2022/05/01 05:55:06;;;;;;;;;;;19.80;58.40;;;;;;5074065;28;1348;-69
2022/05/01 05:57:32;;;;;;;;;;;19.80;58.30;;;;;;5073699;28;1257;-69
2022/05/01 05:59:57;;;;;;;;;;;19.90;58.20;;;;;;5074087;28;1329;-68
2022/05/01 06:02:22;;;;;;;;;;;19.90;58.20;;;;;;5073832;28;1890;-67
2022/05/01 06:04:48;;;;;;;;;;;19.90;58.10;;;;;;5073792;28;1515;-68
2022/05/01 06:07:13;;;;;;;;;;;19.90;58.00;;;;;;5073900;28;1035;-68
2022/05/01 06:09:39;;;;;;;;;;;20.00;58.00;;;;;;5073625;28;1278;-68
2022/05/01 06:12:04;;;;;;;;;;;20.00;58.00;;;;;;5072436;28;1298;-69
2022/05/01 06:14:30;;;;;;;;;;;20.00;58.00;;;;;;5073286;28;1198;-67
2022/05/01 06:16:55;;;;;;;;;;;20.00;58.00;;;;;;5074011;28;1359;-70
2022/05/01 06:19:21;;;;;;;;;;;20.00;58.00;;;;;;5072174;28;1397;-72
2022/05/01 06:21:46;;;;;;;;;;;20.00;58.00;;;;;;5073591;28;1902;-72
2022/05/01 06:24:12;;;;;;;;;;;20.00;58.00;;;;;;5073595;28;1297;-71
2022/05/01 06:26:37;;;;;;;;;;;20.00;58.00;;;;;;5073738;28;1267;-72
2022/05/01 06:29:02;;;;;;;;;;;20.00;58.00;;;;;;5073344;28;1305;-71
2022/05/01 06:31:28;;;;;;;;;;;20.00;58.00;;;;;;5072160;28;1338;-71
2022/05/01 06:33:54;;;;;;;;;;;20.00;58.00;;;;;;5073510;28;1283;-71
2022/05/01 06:36:19;;;;;;;;;;;20.00;58.00;;;;;;5072679;28;1611;-71
2022/05/01 06:38:45;;;;;;;;;;;20.00;58.00;;;;;;5065300;28;1309;-71
2022/05/01 06:41:11;;;;;;;;;;;20.00;58.00;;;;;;5055093;28;1902;-71
2022/05/01 06:43:36;;;;;;;;;;;20.00;58.00;;;;;;5072200;28;1362;-70
2022/05/01 06:46:02;;;;;;;;;;;20.00;58.00;;;;;;5073282;28;1275;-71
2022/05/01 06:48:27;;;;;;;;;;;20.00;58.00;;;;;;5072984;28;1274;-72
2022/05/01 06:50:53;;;;;;;;;;;20.00;58.00;;;;;;5072837;28;1405;-70
2022/05/01 06:53:18;;;;;;;;;;;20.00;58.10;;;;;;5072312;28;1329;-70
2022/05/01 06:55:44;;;;;;;;;;;20.00;58.10;;;;;;5071960;28;1378;-70
2022/05/01 06:58:09;;;;;;;;;;;19.90;58.00;;;;;;5082372;22;2000;-70
2022/05/01 07:00:35;;;;;;;;;;;19.90;58.10;;;;;;5053435;28;1959;-70
2022/05/01 07:03:01;;;;;;;;;;;20.00;58.10;;;;;;5052339;28;1401;-69
2022/05/01 07:05:26;;;;;;;;;;;19.90;58.10;;;;;;5052819;28;1269;-70
2022/05/01 07:07:52;;;;;;;;;;;19.90;58.10;;;;;;5052097;28;1241;-70
2022/05/01 07:10:18;;;;;;;;;;;19.90;58.10;;;;;;5038214;28;1178;-70
2022/05/01 07:12:45;;;;;;;;;;;19.90;58.10;;;;;;5041529;28;1150;-69
2022/05/01 07:15:11;;;;;;;;;;;19.90;58.20;;;;;;5015873;28;1361;-69
2022/05/01 07:17:36;;;;;;;;;;;19.90;58.20;;;;;;5027223;28;1331;-69
2022/05/01 07:20:02;;;;;;;;;;;19.90;58.20;;;;;;5033863;28;1247;-69
2022/05/01 07:22:28;;;;;;;;;;;19.90;58.30;;;;;;5044641;28;1096;-71
2022/05/01 07:24:53;;;;;;;;;;;19.90;58.30;;;;;;5038596;28;1107;-70
2022/05/01 07:27:19;;;;;;;;;;;19.90;58.30;;;;;;5040306;28;1370;-69
2022/05/01 07:29:44;;;;;;;;;;;19.80;58.30;;;;;;5032639;28;1115;-70
2022/05/01 07:32:10;;;;;;;;;;;19.80;58.40;;;;;;5031989;28;1361;-70
2022/05/01 07:34:35;;;;;;;;;;;19.80;58.40;;;;;;5032961;28;1191;-70
2022/05/01 07:37:01;;;;;;;;;;;19.80;58.40;;;;;;5036848;28;1609;-71
2022/05/01 07:39:26;;;;;;;;;;;19.80;58.50;;;;;;5045881;28;1292;-71
2022/05/01 07:41:52;;;;;;;;;;;19.80;58.50;;;;;;5044791;28;1969;-71
2022/05/01 07:44:18;;;;;;;;;;;19.80;58.60;;;;;;5039199;28;1206;-71
2022/05/01 07:46:43;;;;;;;;;;;19.80;58.60;;;;;;5039880;28;1096;-71
2022/05/01 07:49:09;;;;;;;;;;;19.80;58.60;;;;;;5036103;28;1691;-71
2022/05/01 07:51:35;;;;;;;;;;;19.70;58.60;;;;;;5041090;28;1068;-71
2022/05/01 07:54:00;;;;;;;;;;;19.70;58.70;;;;;;5044828;28;1190;-71
2022/05/01 07:56:26;;;;;;;;;;;19.70;58.80;;;;;;5042699;28;1079;-71
2022/05/01 07:58:51;;;;;;;;;;;19.70;58.80;;;;;;5032456;28;1276;-71
2022/05/01 08:01:17;;;;;;;;;;;19.70;58.80;;;;;;5043429;28;1976;-70
2022/05/01 08:06:26;;;;;;;;;;;19.60;58.90;;;;;;5032466;28;1028;-69
2022/05/01 08:08:52;;;;;;;;;;;19.60;58.90;;;;;;5024487;28;1656;-72
2022/05/01 08:11:17;;;;;;;;;;;19.60;59.00;;;;;;5039165;28;1346;-70
2022/05/01 08:13:43;;;;;;;;;;;19.60;59.00;;;;;;5029994;28;1139;-71
2022/05/01 08:16:08;;;;;;;;;;;19.60;59.00;;;;;;5030571;28;1286;-71
2022/05/01 08:21:18;;;;;;;;;;;19.60;59.10;;;;;;5031380;28;1979;-70
2022/05/01 08:23:43;;;;;;;;;;;19.50;59.10;;;;;;5031444;28;1288;-69
2022/05/01 08:26:10;;;;;;;;;;;19.50;59.10;;;;;;5045542;28;1040;-69
2022/05/01 08:28:40;;;;;;;;;;;19.50;59.20;;;;;;5038558;28;1231;-70
2022/05/01 08:31:05;;;;;;;;;;;19.50;59.20;;;;;;5036847;28;1125;-72
2022/05/01 08:33:31;;;;;;;;;;;19.50;59.20;;;;;;5025174;28;1167;-69
2022/05/01 08:35:56;;;;;;;;;;;19.50;59.30;;;;;;5013537;28;1498;-70
2022/05/01 08:38:22;;;;;;;;;;;19.50;59.30;;;;;;5021159;28;1276;-69
2022/05/01 08:40:48;;;;;;;;;;;19.50;59.30;;;;;;5012432;28;1902;-70
2022/05/01 08:43:20;;;;;;;;;;;19.40;59.30;;;;;;5029751;28;1540;-69
2022/05/01 08:46:03;;;;;;;;;;;19.40;59.30;;;;;;5010297;28;1303;-70
2022/05/01 08:48:41;;;;;;;;;;;19.40;59.40;;;;;;5023006;28;1467;-69
2022/05/01 08:51:06;;;;;;;;;;;19.40;59.40;;;;;;5029724;28;1259;-70
2022/05/01 08:53:32;;;;;;;;;;;19.40;59.50;;;;;;5029863;28;1314;-70
2022/05/01 08:56:00;;;;;;;;;;;19.40;59.50;;;;;;5029503;28;1236;-69
2022/05/01 08:58:29;;;;;;;;;;;19.40;59.50;;;;;;5028941;28;1318;-70
2022/05/01 09:00:54;;;;;;;;;;;19.40;59.50;;;;;;5029562;28;1940;-70
2022/05/01 09:03:20;;;;;;;;;;;19.40;59.60;;;;;;5030037;28;1300;-70
2022/05/01 09:05:45;;;;;;;;;;;19.40;59.60;;;;;;5030796;28;1255;-71
2022/05/01 09:08:11;;;;;;;;;;;19.30;59.60;;;;;;5029092;28;1423;-70
2022/05/01 09:10:36;;;;;;;;;;;19.40;59.70;;;;;;5013086;28;1409;-70
2022/05/01 09:13:02;;;;;;;;;;;19.30;59.70;;;;;;5025864;28;1275;-71
2022/05/01 09:15:34;;;;;;;;;;;19.30;59.70;;;;;;5031157;28;1294;-71
2022/05/01 09:18:01;;;;;;;;;;;19.30;59.70;;;;;;5030377;28;1304;-71
2022/05/01 09:20:26;;;;;;;;;;;19.30;59.80;;;;;;5030663;28;1902;-70
2022/05/01 09:22:52;;;;;;;;;;;19.30;59.80;;;;;;5029408;28;1520;-70
2022/05/01 09:25:18;;;;;;;;;;;19.30;59.80;;;;;;5029790;28;1282;-70
2022/05/01 09:27:44;;;;;;;;;;;19.30;59.90;;;;;;5032757;28;1292;-70
2022/05/01 09:30:10;;;;;;;;;;;19.20;59.80;;;;;;5034368;28;1487;-70
2022/05/01 09:32:38;;;;;;;;;;;19.30;59.90;;;;;;5033344;28;1288;-70
2022/05/01 09:35:05;;;;;;;;;;;19.20;59.90;;;;;;5013389;28;1340;-70
2022/05/01 09:37:30;;;;;;;;;;;19.30;60.00;;;;;;5021636;28;1376;-70
2022/05/01 09:39:56;;;;;;;;;;;19.20;59.90;;;;;;5033863;28;1293;-70
2022/05/01 09:42:25;;;;;;;;;;;19.20;60.00;;;;;;5032462;28;1961;-70
2022/05/01 09:45:09;;;;;;;;;;;19.20;60.00;;;;;;5033886;28;1084;-69
2022/05/01 09:47:35;;;;;;;;;;;19.20;60.00;;;;;;5035026;28;1359;-69
2022/05/01 09:50:01;;;;;;;;;;;19.20;60.10;;;;;;5028290;28;1649;-69
2022/05/01 09:52:47;;;;;;;;;;;19.20;60.10;;;;;;5016414;28;1352;-69
2022/05/01 09:55:12;;;;;;;;;;;19.20;60.10;;;;;;5033408;28;1258;-69
2022/05/01 09:57:38;;;;;;;;;;;19.20;60.10;;;;;;5033568;28;1371;-69
2022/05/01 10:00:03;;;;;;;;;;;19.20;60.10;;;;;;5032497;28;1299;-69
2022/05/01 10:02:29;;;;;;;;;;;19.20;60.20;;;;;;5033793;28;1959;-68
2022/05/01 10:04:55;;;;;;;;;;;19.20;60.20;;;;;;5020422;28;1736;-69
2022/05/01 10:07:21;;;;;;;;;;;19.10;60.20;;;;;;5014445;28;1375;-69
2022/05/01 10:09:46;;;;;;;;;;;19.10;60.20;;;;;;5034164;28;1210;-69
2022/05/01 10:12:12;;;;;;;;;;;19.10;60.20;;;;;;5038811;28;1195;-69
2022/05/01 10:14:37;;;;;;;;;;;19.10;60.30;;;;;;5017006;28;1076;-69
2022/05/01 10:17:03;;;;;;;;;;;19.10;60.30;;;;;;5045439;28;1328;-70
2022/05/01 10:19:29;;;;;;;;;;;19.10;60.30;;;;;;5030416;28;1036;-71
2022/05/01 10:21:59;;;;;;;;;;;19.10;60.40;;;;;;5031971;28;2005;-72
2022/05/01 10:24:24;;;;;;;;;;;19.10;60.40;;;;;;5033326;28;1290;-72
2022/05/01 10:27:00;;;;;;;;;;;19.10;60.40;;;;;;5015393;28;1342;-71
2022/05/01 10:29:25;;;;;;;;;;;19.10;60.40;;;;;;5031343;28;1349;-71
2022/05/01 10:35:02;;;;;;;;;;;19.10;60.40;;;;;;5032455;28;1265;-71
2022/05/01 10:37:30;;;;;;;;;;;19.10;60.50;;;;;;5023100;28;1692;-70
2022/05/01 10:39:55;;;;;;;;;;;19.10;60.50;;;;;;5030529;28;1057;-71
2022/05/01 10:42:31;;;;;;;;;;;19.10;60.60;;;;;;5030087;28;1894;-71
2022/05/01 10:44:57;;;;;;;;;;;19.10;60.50;;;;;;5032722;28;1276;-70
2022/05/01 10:47:25;;;;;;;;;;;19.10;60.60;;;;;;5032871;28;1385;-71
2022/05/01 10:49:51;;;;;;;;;;;19.00;60.60;;;;;;5012374;28;1354;-71
2022/05/01 10:52:17;;;;;;;;;;;19.00;60.50;;;;;;5010188;28;3167;-71
2022/05/01 10:54:54;;;;;;;;;;;19.00;60.60;;;;;;5031032;28;1314;-71
2022/05/01 10:57:44;;;;;;;;;;;19.00;60.60;;;;;;5031568;28;1618;-71
2022/05/01 11:00:15;;;;;;;;;;;19.00;60.60;;;;;;5033710;28;1352;-71
2022/05/01 11:02:48;;;;;;;;;;;19.00;60.60;;;;;;5031736;28;1405;-71
2022/05/01 11:05:33;;;;;;;;;;;19.10;60.70;;;;;;5032132;28;1643;-71
2022/05/01 11:07:59;;;;;;;;;;;19.10;60.60;;;;;;5032969;28;1639;-71
2022/05/01 11:10:25;;;;;;;;;;;19.10;60.50;;;;;;5033739;28;1551;-72
2022/05/01 11:12:50;;;;;;;;;;;19.10;60.40;;;;;;5032448;28;1334;-72
2022/05/01 11:15:19;;;;;;;;;;;19.20;60.30;;;;;;5033412;28;1378;-72
2022/05/01 11:17:46;;;;;;;;;;;19.20;60.20;;;;;;5031468;28;1707;-72
2022/05/01 11:20:14;;;;;;;;;;;19.30;60.10;;;;;;5033203;28;1394;-71
2022/05/01 11:22:40;;;;;;;;;;;19.30;59.90;;;;;;5032203;28;1452;-71
2022/05/01 11:25:10;;;;;;;;;;;19.40;59.80;;;;;;5033421;28;1275;-71
2022/05/01 11:27:51;;;;;;;;;;;19.40;59.60;;;;;;5031180;28;1551;-71
2022/05/01 11:30:26;;;;;;;;;;;19.50;59.50;;;;;;5012665;28;1674;-71
2022/05/01 11:32:58;;;;;;;;;;;19.60;59.40;;;;;;5031067;28;1352;-72
2022/05/01 11:35:44;;;;;;;;;;;19.60;59.20;;;;;;5013044;28;1555;-71
2022/05/01 11:38:09;;;;;;;;;;;19.60;59.10;;;;;;5017730;28;1582;-72
2022/05/01 11:40:35;;;;;;;;;;;19.70;59.00;;;;;;5045034;28;1902;-67
2022/05/01 11:43:16;;;;;;;;;;;19.70;58.90;;;;;;5032788;28;812;-67
2022/05/01 11:45:42;;;;;;;;;;;19.70;58.80;;;;;;5031483;28;1377;-69
2022/05/01 11:48:11;;;;;;;;;;;19.80;58.80;;;;;;5027175;28;2048;-70
2022/05/01 11:50:37;;;;;;;;;;;19.80;58.70;;;;;;5030945;28;867;-70
2022/05/01 11:53:02;;;;;;;;;;;19.80;58.60;;;;;;5031032;28;1372;-67
2022/05/01 12:02:24;;;;;;;;;;;19.80;58.60;;;;;;5031937;28;1349;-68
2022/05/01 12:03:41;;;;;;;;;;;19.90;58.60;;;;;;5031468;28;1676;-71
2022/05/01 12:06:07;;;;;;;;;;;19.90;58.50;;;;;;5031996;28;1585;-68
2022/05/01 12:08:33;;;;;;;;;;;19.90;58.50;;;;;;5030080;28;1855;-67
2022/05/01 12:10:58;;;;;;;;;;;19.90;58.50;;;;;;5027435;28;1156;-66
2022/05/01 12:13:32;;;;;;;;;;;19.90;58.50;;;;;;5031772;28;1306;-68
2022/05/01 12:15:57;;;;;;;;;;;19.90;58.50;;;;;;5023510;28;1075;-68
2022/05/01 12:18:23;;;;;;;;;;;19.90;58.40;;;;;;5044422;28;1338;-69
2022/05/01 12:20:49;;;;;;;;;;;19.90;58.50;;;;;;5042405;28;1894;-71
2022/05/01 12:23:15;;;;;;;;;;;19.90;58.40;;;;;;5032680;28;1330;-70
2022/05/01 12:25:41;;;;;;;;;;;19.90;58.40;;;;;;5030092;28;1290;-71
2022/05/01 12:28:07;;;;;;;;;;;19.90;58.40;;;;;;5043236;28;1248;-69
2022/05/01 12:30:34;;;;;;;;;;;19.90;58.40;;;;;;5029703;28;1196;-69
2022/05/01 12:32:59;;;;;;;;;;;19.90;58.40;;;;;;5030272;28;1314;-69
2022/05/01 12:35:25;;;;;;;;;;;19.90;58.50;;;;;;5029014;28;2167;-71
2022/05/01 12:37:50;;;;;;;;;;;19.90;58.50;;;;;;5028251;28;1387;-69
2022/05/01 12:43:50;;;;;;;;;;;19.90;58.50;;;;;;5035694;28;1957;-70
2022/05/01 12:45:59;;;;;;;;;;;19.90;58.50;;;;;;5011346;28;1343;-71
2022/05/01 12:48:25;;;;;;;;;;;19.90;58.50;;;;;;5029998;28;1343;-67
2022/05/01 12:50:50;;;;;;;;;;;19.90;58.50;;;;;;5017731;28;1691;-70
2022/05/01 12:53:22;;;;;;;;;;;19.80;58.50;;;;;;5029059;28;948;-64
2022/05/01 12:55:47;;;;;;;;;;;19.90;58.50;;;;;;5031618;28;1235;-68
2022/05/01 12:58:13;;;;;;;;;;;19.80;59.10;;;;;;5044747;23;3864;-69
2022/05/01 13:00:39;;;;;;;;;;;19.80;58.50;;;;;;5026835;28;1975;-68
2022/05/01 13:03:14;;;;;;;;;;;19.80;58.60;;;;;;5034466;28;1088;-67
2022/05/01 13:05:39;;;;;;;;;;;19.90;58.60;;;;;;5023925;28;1299;-69
2022/05/01 13:08:15;;;;;;;;;;;19.90;58.60;;;;;;5038357;28;1408;-69
2022/05/01 13:10:40;;;;;;;;;;;19.80;58.60;;;;;;5044797;28;1099;-67
2022/05/01 13:13:06;;;;;;;;;;;19.80;58.60;;;;;;5055201;28;1300;-67
2022/05/01 13:15:37;;;;;;;;;;;19.80;58.60;;;;;;5055895;28;1313;-65
2022/05/01 13:18:03;;;;;;;;;;;19.90;58.70;;;;;;5053675;28;1275;-66
2022/05/01 13:20:28;;;;;;;;;;;19.80;58.60;;;;;;5054261;28;1953;-67
2022/05/01 13:22:54;;;;;;;;;;;19.80;58.70;;;;;;5047446;28;1060;-67
2022/05/01 13:25:19;;;;;;;;;;;19.80;58.70;;;;;;5052451;28;1266;-69
2022/05/01 13:27:45;;;;;;;;;;;19.80;58.70;;;;;;5053980;28;1378;-67
2022/05/01 13:30:11;;;;;;;;;;;19.80;58.70;;;;;;5053110;28;1286;-70
2022/05/01 13:32:36;;;;;;;;;;;19.80;58.80;;;;;;5054697;28;1277;-67
2022/05/01 13:35:02;;;;;;;;;;;19.80;58.80;;;;;;5048788;28;1754;-66
2022/05/01 13:37:30;;;;;;;;;;;19.70;58.70;;;;;;5050727;28;1664;-67
2022/05/01 13:45:23;;;;;;;;;;;19.80;58.80;;;;;;5048955;28;1930;-64
2022/05/01 13:47:49;;;;;;;;;;;19.70;58.80;;;;;;5056812;28;1369;-66
2022/05/01 13:50:14;;;;;;;;;;;19.70;58.80;;;;;;5044073;28;1435;-68
2022/05/01 13:52:40;;;;;;;;;;;19.70;58.80;;;;;;5049382;28;1234;-69
2022/05/01 13:55:06;;;;;;;;;;;19.70;58.80;;;;;;5053878;28;1308;-66
2022/05/01 13:57:31;;;;;;;;;;;19.70;58.80;;;;;;5042812;28;1752;-67
2022/05/01 13:59:57;;;;;;;;;;;19.70;58.80;;;;;;5051174;28;1269;-71
2022/05/01 14:02:22;;;;;;;;;;;19.70;58.80;;;;;;5053325;28;1902;-69
2022/05/01 14:04:48;;;;;;;;;;;19.70;58.90;;;;;;5053090;28;1262;-66
2022/05/01 14:07:14;;;;;;;;;;;19.70;58.90;;;;;;5047955;28;2138;-69
2022/05/01 14:09:41;;;;;;;;;;;19.80;58.90;;;;;;5052676;28;1436;-64
2022/05/01 14:12:08;;;;;;;;;;;19.80;58.90;;;;;;5052643;28;1197;-65
2022/05/01 14:14:33;;;;;;;;;;;19.80;58.90;;;;;;5045113;28;1193;-70
2022/05/01 14:16:59;;;;;;;;;;;19.80;58.90;;;;;;5051572;28;1051;-70
2022/05/01 14:19:25;;;;;;;;;;;19.80;58.80;;;;;;5052495;28;1212;-73
2022/05/01 14:21:50;;;;;;;;;;;19.80;59.40;;;;;;5038477;28;1957;-71
2022/05/01 14:24:16;;;;;;;;;;;19.80;58.80;;;;;;5052851;28;1201;-70
2022/05/01 14:26:41;;;;;;;;;;;19.80;58.80;;;;;;5041428;28;1748;-69
2022/05/01 14:29:07;;;;;;;;;;;19.80;58.80;;;;;;5051654;28;1345;-69
2022/05/01 14:31:38;;;;;;;;;;;19.80;58.70;;;;;;5053126;28;1301;-70
2022/05/01 14:34:15;;;;;;;;;;;19.80;58.70;;;;;;5053332;28;1325;-67
2022/05/01 14:36:41;;;;;;;;;;;19.80;58.70;;;;;;5049223;28;1584;-69
2022/05/01 14:39:07;;;;;;;;;;;19.80;58.70;;;;;;5061070;28;1488;-70
2022/05/01 14:41:33;;;;;;;;;;;19.80;58.70;;;;;;5032470;28;1951;-70
2022/05/01 14:44:02;;;;;;;;;;;19.80;58.70;;;;;;5049218;28;1245;-68
2022/05/01 14:46:27;;;;;;;;;;;19.80;58.70;;;;;;5043262;28;1176;-68
2022/05/01 14:49:04;;;;;;;;;;;19.80;58.70;;;;;;5053737;28;1320;-66
2022/05/01 14:51:30;;;;;;;;;;;19.80;58.70;;;;;;5053754;28;1122;-70
2022/05/01 14:53:55;;;;;;;;;;;19.80;58.70;;;;;;5053254;28;1227;-69
2022/05/01 14:56:22;;;;;;;;;;;19.80;58.70;;;;;;5052329;28;1116;-67
2022/05/01 15:07:00;;;;;;;;;;;19.80;58.70;;;;;;5050032;28;1022;-67
2022/05/01 15:09:25;;;;;;;;;;;19.80;58.70;;;;;;5051828;28;1310;-67
2022/05/01 15:11:51;;;;;;;;;;;19.80;58.80;;;;;;5052477;28;1202;-69
2022/05/01 15:14:16;;;;;;;;;;;19.80;58.80;;;;;;5052960;28;1227;-71